createdAt,value
2023-03-02T00:02:31.738Z,1.60
2023-03-02T00:06:36.271Z,1.60
2023-03-02T00:10:38.674Z,1.59
2023-03-02T00:14:40.304Z,1.55
2023-03-02T00:18:41.937Z,1.45
2023-03-02T00:22:45.209Z,1.32
2023-03-02T00:26:46.777Z,1.18
2023-03-02T00:30:48.544Z,1.05
2023-03-02T00:34:50.372Z,0.90
2023-03-02T00:38:52.533Z,0.79
2023-03-02T00:42:54.118Z,0.73
2023-03-02T00:46:55.787Z,0.62
2023-03-02T00:51:00.867Z,0.56
2023-03-02T00:55:02.435Z,0.53
2023-03-02T00:59:05.957Z,0.51
2023-03-02T01:03:08.313Z,0.51
2023-03-02T01:07:12.994Z,0.51
2023-03-02T01:11:16.366Z,0.44
2023-03-02T01:15:18.078Z,0.39
2023-03-02T01:19:19.654Z,0.31
2023-03-02T01:23:21.479Z,0.24
2023-03-02T01:27:23.081Z,0.20
2023-03-02T01:31:26.416Z,0.13
2023-03-02T01:35:28.101Z,0.06
2023-03-02T01:39:29.822Z,0.00
2023-03-02T01:43:31.523Z,-0.04
2023-03-02T01:47:36.712Z,-0.04
2023-03-02T01:51:47.516Z,-0.05
2023-03-02T01:55:50.250Z,-0.08
2023-03-02T01:59:55.904Z,-0.13
2023-03-02T02:03:57.572Z,-0.19
2023-03-02T02:07:59.353Z,-0.27
2023-03-02T02:12:01.011Z,-0.33
2023-03-02T02:16:02.764Z,-0.41
2023-03-02T02:20:24.245Z,-0.46
2023-03-02T02:24:29.048Z,-0.49
2023-03-02T02:28:48.305Z,-0.50
2023-03-02T02:32:53.873Z,-0.53
2023-03-02T02:36:59.575Z,-0.57
2023-03-02T02:41:04.298Z,-0.60
2023-03-02T02:45:20.681Z,-0.63
2023-03-02T02:49:39.763Z,-0.63
2023-03-02T02:53:58.639Z,-0.61
2023-03-02T02:58:10.042Z,-0.60
2023-03-02T03:02:19.630Z,-0.59
2023-03-02T03:06:25.869Z,-0.57
2023-03-02T03:10:39.962Z,-0.55
2023-03-02T03:14:42.018Z,-0.49
2023-03-02T03:18:49.218Z,-0.51
2023-03-02T03:22:53.523Z,-0.55
2023-03-02T03:26:56.973Z,-0.57
2023-03-02T03:30:59.574Z,-0.61
2023-03-02T03:35:02.015Z,-0.64
2023-03-02T03:39:06.796Z,-0.66
2023-03-02T03:43:09.358Z,-0.70
2023-03-02T03:47:10.964Z,-0.71
2023-03-02T03:51:12.776Z,-0.72
2023-03-02T03:55:15.001Z,-0.75
2023-03-02T03:59:21.352Z,-0.78
2023-03-02T04:03:27.508Z,-0.81
2023-03-02T04:07:29.084Z,-0.85
2023-03-02T04:11:35.866Z,-0.86
2023-03-02T04:15:39.488Z,-0.90
2023-03-02T04:19:41.210Z,-0.92
2023-03-02T04:23:44.180Z,-0.98
2023-03-02T04:27:47.823Z,-0.98
2023-03-02T04:31:50.094Z,-1.02
2023-03-02T04:35:54.684Z,-0.99
2023-03-02T04:39:57.303Z,-0.93
2023-03-02T04:43:59.037Z,-0.83
2023-03-02T04:48:00.659Z,-0.75
2023-03-02T04:52:02.724Z,-0.72
2023-03-02T04:56:04.626Z,-0.66
2023-03-02T05:00:09.923Z,-0.58
2023-03-02T05:04:12.699Z,-0.58
2023-03-02T05:08:14.920Z,-0.47
2023-03-02T05:12:19.247Z,-0.43
2023-03-02T05:16:21.583Z,-0.41
2023-03-02T05:20:27.667Z,-0.39
2023-03-02T05:24:29.321Z,-0.31
2023-03-02T05:28:31.351Z,-0.26
2023-03-02T05:32:33.011Z,-0.20
2023-03-02T05:36:35.454Z,-0.15
2023-03-02T05:40:37.923Z,-0.12
2023-03-02T05:44:39.480Z,-0.06
2023-03-02T05:48:42.273Z,-0.03
2023-03-02T05:52:45.493Z,0.01
2023-03-02T05:56:48.874Z,-0.01
2023-03-02T06:00:52.383Z,0.04
2023-03-02T06:04:54.810Z,0.00
2023-03-02T06:08:56.368Z,0.02
2023-03-02T06:12:58.332Z,0.01
2023-03-02T06:17:00.026Z,0.05
2023-03-02T06:21:01.835Z,0.03
2023-03-02T06:25:04.394Z,0.09
2023-03-02T06:29:07.672Z,0.10
2023-03-02T06:33:09.324Z,0.14
2023-03-02T06:37:11.179Z,0.19
2023-03-02T06:41:12.835Z,0.22
2023-03-02T06:45:15.384Z,0.26
2023-03-02T06:49:17.078Z,0.27
2023-03-02T06:53:22.420Z,0.35
2023-03-02T06:57:24.837Z,0.36
2023-03-02T07:01:26.475Z,0.38
2023-03-02T07:05:32.167Z,0.45
2023-03-02T07:09:35.466Z,0.55
2023-03-02T07:13:40.458Z,0.62
2023-03-02T07:17:44.590Z,0.70
2023-03-02T07:21:46.336Z,0.76
2023-03-02T07:25:47.886Z,0.84
2023-03-02T07:29:50.402Z,0.91
2023-03-02T07:33:53.389Z,1.02
2023-03-02T07:37:54.977Z,1.11
2023-03-02T07:42:01.236Z,1.25
2023-03-02T07:46:05.348Z,1.36
2023-03-02T07:50:07.687Z,1.50
2023-03-02T07:54:11.377Z,1.65
2023-03-02T07:58:14.350Z,1.74
2023-03-02T08:02:18.332Z,1.95
2023-03-02T08:06:20.235Z,2.15
2023-03-02T08:10:23.188Z,2.25
2023-03-02T08:14:25.505Z,2.41
2023-03-02T08:18:27.926Z,2.54
2023-03-02T08:22:31.730Z,2.75
2023-03-02T08:26:33.314Z,2.99
2023-03-02T08:30:37.632Z,3.17
2023-03-02T08:34:39.833Z,3.29
2023-03-02T08:38:42.032Z,3.42
2023-03-02T08:42:43.658Z,3.55
2023-03-02T08:46:45.628Z,3.80
2023-03-02T08:51:23.280Z,4.13
2023-03-02T08:55:25.325Z,4.47
2023-03-02T08:59:27.730Z,4.69
2023-03-02T09:03:29.628Z,4.87
2023-03-02T09:07:32.266Z,4.97
2023-03-02T09:11:34.688Z,5.18
2023-03-02T09:15:43.345Z,5.33
2023-03-02T09:19:46.409Z,5.51
2023-03-02T09:23:48.089Z,5.66
2023-03-02T09:27:49.688Z,5.66
2023-03-02T09:31:52.376Z,5.68
2023-03-02T09:35:54.046Z,5.88
2023-03-02T09:39:55.772Z,6.14
2023-03-02T09:44:16.349Z,6.50
2023-03-02T09:48:43.493Z,6.74
2023-03-02T09:53:06.277Z,6.71
2023-03-02T09:57:32.997Z,6.80
2023-03-02T10:01:39.716Z,6.98
2023-03-02T10:05:45.240Z,7.33
2023-03-02T10:09:47.034Z,7.39
2023-03-02T10:14:03.538Z,7.48
2023-03-02T10:18:30.091Z,7.52
2023-03-02T10:22:55.633Z,7.74
2023-03-02T10:27:26.099Z,7.93
2023-03-02T10:31:32.290Z,8.10
2023-03-02T10:35:38.218Z,8.38
2023-03-02T10:39:39.901Z,8.58
2023-03-02T10:43:48.244Z,8.75
2023-03-02T10:48:03.870Z,8.79
2023-03-02T10:52:13.517Z,8.80
2023-03-02T10:56:21.781Z,8.87
2023-03-02T11:00:25.969Z,8.99
2023-03-02T11:04:27.694Z,9.17
2023-03-02T11:08:30.737Z,9.32
2023-03-02T11:12:37.242Z,9.53
2023-03-02T11:16:41.235Z,9.67
2023-03-02T11:20:47.249Z,9.96
2023-03-02T11:24:55.068Z,10.25
2023-03-02T11:29:10.240Z,10.44
2023-03-02T11:33:25.188Z,10.76
2023-03-02T11:37:48.220Z,10.81
2023-03-02T11:41:50.762Z,10.75
2023-03-02T11:45:58.925Z,10.96
2023-03-02T11:50:06.212Z,11.16
2023-03-02T11:54:34.004Z,11.25
2023-03-02T11:58:39.237Z,11.54
2023-03-02T12:02:41.636Z,11.91
2023-03-02T12:06:45.375Z,12.32
2023-03-02T12:11:00.383Z,13.02
2023-03-02T12:15:02.763Z,13.61
2023-03-02T12:19:17.230Z,14.08
2023-03-02T12:23:24.176Z,14.12
2023-03-02T12:27:33.651Z,14.39
2023-03-02T12:31:56.115Z,15.00
2023-03-02T12:36:10.209Z,15.17
2023-03-02T12:40:33.550Z,15.62
2023-03-02T12:45:01.272Z,16.02
2023-03-02T12:49:41.861Z,16.34
2023-03-02T12:53:43.519Z,16.58
2023-03-02T12:57:50.649Z,16.84
2023-03-02T13:01:53.211Z,16.99
2023-03-02T13:06:13.940Z,17.62
2023-03-02T13:10:54.228Z,17.88
2023-03-02T13:14:59.231Z,17.77
2023-03-02T13:19:05.631Z,17.79
2023-03-02T13:23:07.479Z,17.93
2023-03-02T13:27:18.192Z,17.15
2023-03-02T13:31:23.406Z,15.83
2023-03-02T13:35:27.595Z,15.25
2023-03-02T13:39:34.159Z,15.14
2023-03-02T13:43:38.677Z,15.26
2023-03-02T13:47:43.767Z,15.41
2023-03-02T13:51:47.335Z,15.76
2023-03-02T13:55:49.103Z,15.16
2023-03-02T13:59:51.718Z,14.63
2023-03-02T14:04:05.544Z,14.27
2023-03-02T14:08:10.511Z,13.96
2023-03-02T14:12:24.518Z,13.79
2023-03-02T14:16:26.669Z,13.45
2023-03-02T14:20:28.313Z,13.29
2023-03-02T14:24:29.961Z,13.35
2023-03-02T14:28:36.063Z,13.40
2023-03-02T14:32:41.043Z,13.35
2023-03-02T14:36:45.778Z,13.38
2023-03-02T14:40:47.580Z,13.47
2023-03-02T14:44:51.401Z,13.53
2023-03-02T14:48:53.207Z,13.46
2023-03-02T14:52:57.821Z,13.61
2023-03-02T14:57:03.000Z,13.86
2023-03-02T15:01:06.226Z,13.84
2023-03-02T15:05:09.195Z,13.95
2023-03-02T15:09:11.516Z,14.04
2023-03-02T15:13:14.310Z,14.25
2023-03-02T15:17:16.702Z,14.48
2023-03-02T15:21:23.986Z,14.68
2023-03-02T15:25:29.201Z,14.72
2023-03-02T15:29:30.755Z,14.61
2023-03-02T15:33:32.592Z,14.55
2023-03-02T15:37:34.512Z,14.49
2023-03-02T15:41:37.209Z,14.36
2023-03-02T15:45:44.464Z,14.12
2023-03-02T15:49:46.064Z,13.88
2023-03-02T15:53:48.982Z,13.59
2023-03-02T15:57:50.651Z,13.52
2023-03-02T16:01:52.875Z,13.41
2023-03-02T16:05:58.515Z,13.31
2023-03-02T16:10:00.228Z,13.13
2023-03-02T16:14:03.531Z,12.87
2023-03-02T16:18:05.246Z,12.64
2023-03-02T16:22:06.951Z,12.50
2023-03-02T16:26:11.500Z,12.25
2023-03-02T16:30:16.280Z,12.09
2023-03-02T16:34:21.195Z,11.92
2023-03-02T16:38:22.884Z,11.77
2023-03-02T16:42:24.642Z,11.58
2023-03-02T16:46:30.118Z,11.39
2023-03-02T16:50:32.433Z,11.18
2023-03-02T16:54:35.184Z,10.98
2023-03-02T16:58:38.427Z,10.78
2023-03-02T17:02:40.173Z,10.52
2023-03-02T17:06:59.556Z,10.25
2023-03-02T17:11:04.035Z,10.02
2023-03-02T17:15:06.457Z,9.75
2023-03-02T17:19:09.162Z,9.45
2023-03-02T17:23:12.530Z,9.22
2023-03-02T17:27:24.567Z,9.00
2023-03-02T17:31:27.580Z,8.75
2023-03-02T17:35:29.357Z,8.54
2023-03-02T17:39:31.054Z,8.35
2023-03-02T17:43:35.456Z,8.18
2023-03-02T17:47:37.034Z,7.99
2023-03-02T17:51:38.904Z,7.91
2023-03-02T17:55:40.493Z,7.81
2023-03-02T17:59:42.064Z,7.73
2023-03-02T18:03:45.193Z,7.60
2023-03-02T18:07:47.087Z,7.49
2023-03-02T18:11:48.873Z,7.37
2023-03-02T18:15:50.502Z,7.36
2023-03-02T18:19:52.164Z,7.34
2023-03-02T18:23:54.557Z,7.27
2023-03-02T18:27:56.541Z,7.21
2023-03-02T18:31:58.535Z,7.16
2023-03-02T18:36:02.289Z,7.11
2023-03-02T18:40:07.155Z,7.06
2023-03-02T18:44:10.152Z,7.01
2023-03-02T18:48:11.715Z,6.94
2023-03-02T18:52:15.002Z,6.88
2023-03-02T18:56:17.977Z,6.85
2023-03-02T19:00:23.332Z,6.78
2023-03-02T19:04:26.760Z,6.67
2023-03-02T19:08:29.639Z,6.55
2023-03-02T19:12:32.167Z,6.50
2023-03-02T19:16:35.481Z,6.50
2023-03-02T19:20:37.174Z,6.44
2023-03-02T19:24:40.518Z,6.33
2023-03-02T19:28:42.227Z,6.25
2023-03-02T19:32:44.930Z,6.19
2023-03-02T19:36:47.423Z,6.09
2023-03-02T19:40:52.543Z,5.99
2023-03-02T19:44:54.263Z,5.88
2023-03-02T19:48:55.992Z,5.82
2023-03-02T19:52:58.335Z,5.72
2023-03-02T19:57:00.002Z,5.62
2023-03-02T20:01:04.248Z,5.51
2023-03-02T20:05:07.035Z,5.39
2023-03-02T20:09:13.002Z,5.25
2023-03-02T20:13:15.717Z,5.17
2023-03-02T20:17:17.788Z,5.13
2023-03-02T20:21:19.612Z,5.06
2023-03-02T20:25:21.670Z,5.01
2023-03-02T20:29:23.659Z,5.01
2023-03-02T20:33:30.826Z,5.04
2023-03-02T20:37:32.414Z,5.07
2023-03-02T20:41:34.156Z,5.06
2023-03-02T20:45:35.843Z,5.08
2023-03-02T20:49:38.115Z,4.99
2023-03-02T20:53:39.823Z,4.96
2023-03-02T20:57:41.615Z,4.99
2023-03-02T21:01:43.635Z,4.92
2023-03-02T21:05:45.782Z,4.91
2023-03-02T21:09:47.453Z,4.86
2023-03-02T21:13:49.543Z,4.79
2023-03-02T21:17:54.641Z,4.76
2023-03-02T21:21:57.399Z,4.70
2023-03-02T21:25:58.963Z,4.70
2023-03-02T21:30:03.289Z,4.67
2023-03-02T21:34:05.063Z,4.61
2023-03-02T21:38:07.002Z,4.55
2023-03-02T21:42:08.635Z,4.49
2023-03-02T21:46:14.490Z,4.51
2023-03-02T21:50:21.281Z,4.48
2023-03-02T21:54:23.024Z,4.42
2023-03-02T21:58:24.891Z,4.37
2023-03-02T22:02:26.987Z,4.32
2023-03-02T22:06:31.588Z,4.30
2023-03-02T22:10:39.050Z,4.33
2023-03-02T22:14:40.910Z,4.33
2023-03-02T22:18:44.594Z,4.31
2023-03-02T22:22:47.904Z,4.27
2023-03-02T22:27:04.770Z,4.23
2023-03-02T22:31:17.209Z,4.18
2023-03-02T22:35:26.953Z,4.12
2023-03-02T22:39:31.923Z,4.10
2023-03-02T22:43:35.082Z,4.08
2023-03-02T22:47:36.742Z,4.08
2023-03-02T22:51:38.360Z,4.02
2023-03-02T22:55:42.991Z,4.03
2023-03-02T22:59:44.617Z,4.01
2023-03-02T23:03:48.094Z,3.96
2023-03-02T23:07:49.664Z,3.86
2023-03-02T23:11:52.925Z,3.72
2023-03-02T23:15:54.792Z,3.62
2023-03-02T23:19:56.560Z,3.51
2023-03-02T23:23:58.114Z,3.39
2023-03-02T23:27:59.658Z,3.31
2023-03-02T23:32:01.685Z,3.25
2023-03-02T23:36:03.728Z,3.17
2023-03-02T23:40:05.857Z,3.17
2023-03-02T23:44:07.460Z,3.06
2023-03-02T23:48:09.209Z,3.05
2023-03-02T23:52:10.761Z,3.00
2023-03-02T23:56:12.431Z,2.89
